Barhom II — 5IM534 — position and weather

sailwx.info

Track history (hours):
 
Tides and Currents Weather Stations Pressure Air Temp Water Temp Dewpoint Dewpoint Depression Visibility Wind Speed Wind Dir Waves Ship Positions

Barhom II

Last reported at 2015-Mar-19 22:09 UTC. Time now 2015-Mar-29 23:45 UTC.
Position N 37°10' E 005°59'.
Warning: this ship's position is 10 days out of date.

Length 83 m; draft 4.6 m.

Type: Cargo ship. MMSI: 677043400.

Date/timePositionNaut miles runAvg speedWind from/ knotsBaromVisibWave heightAir tempDewpointWater temp
2015-Mar-19 22:09N 37°10' E 005°59'7 6.7
2015-Mar-19 21:09N 37°08' E 005°51'52 6.5
2015-Mar-19 13:10N 37°11' E 004°46'55 8.2
2015-Mar-19 06:26N 37°19' E 003°38'7 7.7
2015-Mar-19 05:31N 37°20' E 003°29'9 8.0
2015-Mar-19 04:24N 37°22' E 003°18'10 8.0
2015-Mar-19 03:11N 37°24' E 003°06'5 7.9
2015-Mar-19 02:33N 37°25' E 002°60'51 6.3
2015-Mar-18 18:28N 37°34' E 001°56'99 7.1
2015-Mar-18 04:29N 37°32' W 000°09'6 6.8
2015-Mar-18 03:32N 37°30' W 000°16'6 6.0
2015-Mar-18 02:32N 37°29' W 000°24'6 6.1
2015-Mar-18 01:33N 37°28' W 000°31'5749.5
2015-Mar-18 00:24N 37°29' E 000°40'7182.9
2015-Mar-17 23:33N 37°29' W 000°49'9 8.6
2015-Mar-17 22:33N 37°31' W 000°59'  
2015-Mar-15 13:31N 37°36' W 000°59'7 7.3
2015-Mar-15 12:33N 37°31' W 000°52'1111.2
2015-Mar-15 11:33N 37°31' W 000°38'1110.8
2015-Mar-15 10:33N 37°34' W 000°25'1111.2
2015-Mar-15 09:33N 37°34' W 000°11'  
Track history (hours):
 
Tides and Currents Weather Stations Pressure Air Temp Water Temp Dewpoint Dewpoint Depression Visibility Wind Speed Wind Dir Waves Ship Positions

Barhom II

Last reported at 2015-Mar-19 22:09 UTC. Time now 2015-Mar-29 23:45 UTC.
Position N 37°10' E 005°59'.
Warning: this ship's position is 10 days out of date.

Length 83 m; draft 4.6 m.

Type: Cargo ship. MMSI: 677043400.

Date/timePositionNaut miles runAvg speedWind from/ knotsBaromVisibWave heightAir tempDewpointWater temp
2015-Mar-19 22:09N 37°10' E 005°59'7 6.7
2015-Mar-19 21:09N 37°08' E 005°51'52 6.5
2015-Mar-19 13:10N 37°11' E 004°46'55 8.2
2015-Mar-19 06:26N 37°19' E 003°38'7 7.7
2015-Mar-19 05:31N 37°20' E 003°29'9 8.0
2015-Mar-19 04:24N 37°22' E 003°18'10 8.0
2015-Mar-19 03:11N 37°24' E 003°06'5 7.9
2015-Mar-19 02:33N 37°25' E 002°60'51 6.3
2015-Mar-18 18:28N 37°34' E 001°56'99 7.1
2015-Mar-18 04:29N 37°32' W 000°09'6 6.8
2015-Mar-18 03:32N 37°30' W 000°16'6 6.0
2015-Mar-18 02:32N 37°29' W 000°24'6 6.1
2015-Mar-18 01:33N 37°28' W 000°31'5749.5
2015-Mar-18 00:24N 37°29' E 000°40'7182.9
2015-Mar-17 23:33N 37°29' W 000°49'9 8.6
2015-Mar-17 22:33N 37°31' W 000°59'  
2015-Mar-15 13:31N 37°36' W 000°59'7 7.3
2015-Mar-15 12:33N 37°31' W 000°52'1111.2
2015-Mar-15 11:33N 37°31' W 000°38'1110.8
2015-Mar-15 10:33N 37°34' W 000°25'1111.2
2015-Mar-15 09:33N 37°34' W 000°11'  

Dump ship's entire track history